createdAt,value
2023-02-21T02:00:36.269Z,28.70
2023-02-21T02:01:36.313Z,28.70
2023-02-21T02:02:36.332Z,28.71
2023-02-21T02:03:36.385Z,28.71
2023-02-21T02:04:36.433Z,28.68
2023-02-21T02:05:36.441Z,28.72
2023-02-21T02:06:36.490Z,28.71
2023-02-21T02:07:36.523Z,28.71
2023-02-21T02:08:36.564Z,28.69
2023-02-21T02:09:36.611Z,28.70
2023-02-21T02:10:36.657Z,28.70
2023-02-21T02:11:36.692Z,28.72
2023-02-21T02:12:36.729Z,28.68
2023-02-21T02:13:36.765Z,28.70
2023-02-21T02:14:36.824Z,28.71
2023-02-21T02:15:36.888Z,28.70
2023-02-21T02:16:36.873Z,28.71
2023-02-21T02:17:36.924Z,28.72
2023-02-21T02:18:36.962Z,28.72
2023-02-21T02:19:37.097Z,28.74
2023-02-21T02:20:37.039Z,28.71
2023-02-21T02:21:37.072Z,28.65
2023-02-21T02:22:37.114Z,28.64
2023-02-21T02:23:37.151Z,28.64
2023-02-21T02:24:37.188Z,28.65
2023-02-21T02:25:37.223Z,28.63
2023-02-21T02:26:37.252Z,28.61
2023-02-21T02:27:37.298Z,28.63
2023-02-21T02:28:37.330Z,28.63
2023-02-21T02:29:37.372Z,28.63
2023-02-21T02:30:37.439Z,28.59
2023-02-21T02:31:37.600Z,28.63
2023-02-21T02:32:37.489Z,28.63
2023-02-21T02:33:37.514Z,28.61
2023-02-21T02:34:37.560Z,28.59
2023-02-21T02:35:37.604Z,28.57
2023-02-21T02:36:37.633Z,28.59
2023-02-21T02:37:37.673Z,28.53
2023-02-21T02:38:37.717Z,28.54
2023-02-21T02:39:37.754Z,28.55
2023-02-21T02:40:37.789Z,28.53
2023-02-21T02:41:37.833Z,28.55
2023-02-21T02:42:37.894Z,28.56
2023-02-21T02:43:37.920Z,28.58
2023-02-21T02:44:37.959Z,28.54
2023-02-21T02:45:37.997Z,28.53
2023-02-21T02:46:38.053Z,28.53
2023-02-21T02:47:38.078Z,28.56
2023-02-21T02:48:38.127Z,28.56
2023-02-21T02:49:38.156Z,28.54
2023-02-21T02:50:38.207Z,28.54
2023-02-21T02:51:38.258Z,28.54
2023-02-21T02:52:38.297Z,28.52
2023-02-21T02:53:38.405Z,28.55
2023-02-21T02:54:38.380Z,28.56
2023-02-21T02:55:38.422Z,28.56
2023-02-21T02:56:38.475Z,28.54
2023-02-21T02:57:38.511Z,28.55
2023-02-21T02:58:38.557Z,28.53
2023-02-21T02:59:38.598Z,28.53
2023-02-21T03:00:38.651Z,28.54
2023-02-21T03:01:38.749Z,28.54
2023-02-21T03:02:38.729Z,28.54
2023-02-21T03:03:38.823Z,28.55
2023-02-21T03:04:38.829Z,28.54
2023-02-21T03:05:38.864Z,28.52
2023-02-21T03:06:38.907Z,28.50
2023-02-21T03:07:38.954Z,28.52
2023-02-21T03:08:39.035Z,28.52
2023-02-21T03:09:39.046Z,28.51
2023-02-21T03:10:39.106Z,28.50
2023-02-21T03:11:39.149Z,28.46
2023-02-21T03:12:39.192Z,28.46
2023-02-21T03:13:39.234Z,28.44
2023-02-21T03:14:39.272Z,28.48
2023-02-21T03:15:39.318Z,28.49
2023-02-21T03:16:39.368Z,28.45
2023-02-21T03:17:39.403Z,28.45
2023-02-21T03:18:39.443Z,28.47
2023-02-21T03:19:39.488Z,28.45
2023-02-21T03:20:39.525Z,28.45
2023-02-21T03:21:39.565Z,28.44
2023-02-21T03:22:39.607Z,28.44
2023-02-21T03:23:39.652Z,28.45
2023-02-21T03:24:39.693Z,28.43
2023-02-21T03:25:39.736Z,28.42
2023-02-21T03:26:39.774Z,28.46
2023-02-21T03:27:39.801Z,28.45
2023-02-21T03:28:39.854Z,28.48
2023-02-21T03:29:39.888Z,28.45
2023-02-21T03:30:39.947Z,28.45
2023-02-21T03:31:40.048Z,28.47
2023-02-21T03:32:40.000Z,28.49
2023-02-21T03:33:40.038Z,28.49
2023-02-21T03:34:40.078Z,28.45
2023-02-21T03:35:40.126Z,28.46
2023-02-21T03:36:40.160Z,28.45
2023-02-21T03:37:40.191Z,28.46
2023-02-21T03:38:40.233Z,28.43
2023-02-21T03:39:40.283Z,28.44
2023-02-21T03:40:40.314Z,28.45
2023-02-21T03:41:40.357Z,28.46
2023-02-21T03:42:40.406Z,28.50
2023-02-21T03:43:40.442Z,28.46
2023-02-21T03:44:40.495Z,28.46
2023-02-21T03:45:40.525Z,28.44
2023-02-21T03:46:41.034Z,28.43
2023-02-21T03:47:40.613Z,28.37
2023-02-21T03:48:40.674Z,28.38
2023-02-21T03:49:40.728Z,28.37
2023-02-21T03:50:40.759Z,28.36
2023-02-21T03:51:40.796Z,28.35
2023-02-21T03:52:40.838Z,28.33
2023-02-21T03:53:40.891Z,28.28
2023-02-21T03:54:40.935Z,28.34
2023-02-21T03:55:40.979Z,28.34
2023-02-21T03:56:42.398Z,28.29
2023-02-21T03:57:41.072Z,28.30
2023-02-21T03:58:41.115Z,28.28
2023-02-21T03:59:41.156Z,28.29
2023-02-21T04:00:41.192Z,28.26
2023-02-21T04:01:41.306Z,28.29
2023-02-21T04:02:41.284Z,28.28
2023-02-21T04:03:41.319Z,28.26
2023-02-21T04:04:41.368Z,28.27
2023-02-21T04:05:41.422Z,28.25
2023-02-21T04:06:41.451Z,28.22
2023-02-21T04:07:41.484Z,28.24
2023-02-21T04:08:41.523Z,28.21
2023-02-21T04:09:41.573Z,28.21
2023-02-21T04:10:51.579Z,28.19
2023-02-21T04:11:42.587Z,28.18
2023-02-21T04:12:41.593Z,28.20
2023-02-21T04:13:41.596Z,28.17
2023-02-21T04:14:41.610Z,28.15
2023-02-21T04:15:41.608Z,28.12
2023-02-21T04:16:41.614Z,28.12
2023-02-21T04:17:41.613Z,28.09
2023-02-21T04:18:41.625Z,28.06
2023-02-21T04:19:41.622Z,28.04
2023-02-21T04:20:41.612Z,28.05
2023-02-21T04:21:41.617Z,28.02
2023-02-21T04:22:41.939Z,27.99
2023-02-21T04:23:41.617Z,27.98
2023-02-21T04:24:41.621Z,27.99
2023-02-21T04:25:41.621Z,27.98
2023-02-21T04:26:41.623Z,27.96
2023-02-21T04:27:41.634Z,27.95
2023-02-21T04:28:41.618Z,27.95
2023-02-21T04:29:41.623Z,27.92
2023-02-21T04:30:41.676Z,27.94
2023-02-21T04:31:41.711Z,27.92
2023-02-21T04:32:41.737Z,27.90
2023-02-21T04:33:41.719Z,27.87
2023-02-21T04:34:41.744Z,27.91
2023-02-21T04:35:41.774Z,27.89
2023-02-21T04:36:41.788Z,27.88
2023-02-21T04:37:41.818Z,27.88
2023-02-21T04:38:41.842Z,27.87
2023-02-21T04:39:41.879Z,27.90
2023-02-21T04:40:41.892Z,27.87
2023-02-21T04:41:41.909Z,27.88
2023-02-21T04:42:41.935Z,27.87
2023-02-21T04:43:41.963Z,27.89
2023-02-21T04:44:46.626Z,27.88
2023-02-21T04:45:43.014Z,27.89
2023-02-21T04:46:41.963Z,27.89
2023-02-21T04:47:41.952Z,27.89
2023-02-21T04:48:41.943Z,27.89
2023-02-21T04:49:41.937Z,27.89
2023-02-21T04:50:41.924Z,27.88
2023-02-21T04:51:41.924Z,27.87
2023-02-21T04:52:41.908Z,27.87
2023-02-21T04:53:41.919Z,27.88
2023-02-21T04:54:41.905Z,27.86
2023-02-21T04:55:41.906Z,27.87
2023-02-21T04:56:41.960Z,27.86
2023-02-21T04:57:41.897Z,27.83
2023-02-21T04:58:45.552Z,27.83
2023-02-21T04:59:41.884Z,27.83
2023-02-21T05:00:41.883Z,27.80
2023-02-21T05:01:41.899Z,27.79
2023-02-21T05:02:41.873Z,27.75
2023-02-21T05:03:41.868Z,27.76
2023-02-21T05:04:41.857Z,27.78
2023-02-21T05:05:41.851Z,27.75
2023-02-21T05:06:41.852Z,27.74
2023-02-21T05:07:41.846Z,27.73
2023-02-21T05:08:41.845Z,27.74
2023-02-21T05:09:41.837Z,27.74
2023-02-21T05:10:45.689Z,27.75
2023-02-21T05:11:41.828Z,27.75
2023-02-21T05:12:41.820Z,27.75
2023-02-21T05:13:41.815Z,27.75
2023-02-21T05:14:41.815Z,27.73
2023-02-21T05:15:41.810Z,27.75
2023-02-21T05:16:41.887Z,27.74
2023-02-21T05:17:41.802Z,27.75
2023-02-21T05:18:41.791Z,27.73
2023-02-21T05:19:41.791Z,27.73
2023-02-21T05:20:41.789Z,27.74
2023-02-21T05:21:41.787Z,27.74
2023-02-21T05:22:41.776Z,27.73
2023-02-21T05:23:41.778Z,27.73
2023-02-21T05:24:41.776Z,27.75
2023-02-21T05:25:41.754Z,27.74
2023-02-21T05:26:41.747Z,27.76
2023-02-21T05:27:41.743Z,27.76
2023-02-21T05:28:41.720Z,27.74
2023-02-21T05:29:41.709Z,27.74
2023-02-21T05:30:41.807Z,27.73
2023-02-21T05:31:41.701Z,27.73
2023-02-21T05:32:41.698Z,27.74
2023-02-21T05:33:41.692Z,27.75
2023-02-21T05:34:41.708Z,27.75
2023-02-21T05:35:41.676Z,27.74
2023-02-21T05:36:41.664Z,27.73
2023-02-21T05:37:41.663Z,27.71
2023-02-21T05:38:41.657Z,27.74
2023-02-21T05:39:41.649Z,27.75
2023-02-21T05:40:41.644Z,27.73
2023-02-21T05:41:41.627Z,27.74
2023-02-21T05:42:41.621Z,27.76
2023-02-21T05:43:41.618Z,27.72
2023-02-21T05:44:41.610Z,27.74
2023-02-21T05:45:41.650Z,27.75
2023-02-21T05:46:41.585Z,27.72
2023-02-21T06:32:41.589Z,29.81
2023-02-21T06:33:41.496Z,30.25
2023-02-21T06:35:41.509Z,30.87
2023-02-21T06:36:41.509Z,31.01
2023-02-21T06:37:41.521Z,31.10
2023-02-21T06:38:41.535Z,31.26
2023-02-21T06:39:41.533Z,31.29
2023-02-21T06:40:41.601Z,31.70
2023-02-21T06:41:41.641Z,31.98
2023-02-21T06:42:41.675Z,32.05
2023-02-21T06:43:41.731Z,32.27
2023-02-21T06:44:41.776Z,32.61
2023-02-21T06:45:41.845Z,32.66
2023-02-21T06:46:41.889Z,32.90
2023-02-21T06:47:41.937Z,33.24
2023-02-21T06:48:41.985Z,33.88
2023-02-21T06:49:42.033Z,33.75
2023-02-21T06:50:42.081Z,33.85
2023-02-21T06:51:42.127Z,33.95
2023-02-21T06:52:42.150Z,34.33
2023-02-21T06:53:42.206Z,34.37
2023-02-21T06:54:42.243Z,34.55
2023-02-21T06:55:42.289Z,34.50
2023-02-21T06:56:42.298Z,27.68
2023-02-21T06:57:42.319Z,28.31
2023-02-21T06:58:42.350Z,29.46
2023-02-21T06:59:42.357Z,30.30
2023-02-21T07:00:42.465Z,32.07
2023-02-21T07:01:42.420Z,32.62
2023-02-21T07:02:42.400Z,33.08
2023-02-21T07:03:42.422Z,33.24
2023-02-21T07:04:42.484Z,33.60
2023-02-21T07:05:42.405Z,33.63
2023-02-21T07:06:42.400Z,34.03
2023-02-21T07:07:42.395Z,33.96
2023-02-21T07:08:42.420Z,34.03
2023-02-21T07:09:42.460Z,34.35
2023-02-21T07:10:42.518Z,34.55
2023-02-21T07:11:42.570Z,35.14
2023-02-21T07:12:42.619Z,35.00
2023-02-21T07:13:42.675Z,35.17
2023-02-21T07:14:42.710Z,35.24
2023-02-21T07:15:42.776Z,35.36
2023-02-21T07:16:42.809Z,35.36
2023-02-21T07:17:42.825Z,35.41
2023-02-21T07:18:42.879Z,35.52
2023-02-21T07:19:42.914Z,35.51
2023-02-21T07:20:42.939Z,35.64
2023-02-21T07:21:42.980Z,36.04
2023-02-21T07:29:42.978Z,28.47
2023-02-21T07:30:43.109Z,29.36
2023-02-21T07:31:43.155Z,29.41
2023-02-21T07:32:43.083Z,29.53
2023-02-21T07:33:43.120Z,29.86
2023-02-21T07:34:43.142Z,29.96
2023-02-21T07:35:43.165Z,29.95
2023-02-21T07:36:43.175Z,29.97
2023-02-21T07:37:43.154Z,29.95
2023-02-21T07:38:43.181Z,29.97
2023-02-21T07:39:43.209Z,29.99
2023-02-21T07:40:43.264Z,30.02
2023-02-21T07:41:43.319Z,30.00
2023-02-21T07:42:43.369Z,30.08
2023-02-21T07:43:43.412Z,30.06
2023-02-21T07:44:43.457Z,30.13
2023-02-21T07:45:43.485Z,30.19
2023-02-21T07:46:43.614Z,30.16
2023-02-21T07:47:43.536Z,30.19
2023-02-21T07:48:43.580Z,30.25
2023-02-21T07:49:43.596Z,30.38
2023-02-21T07:50:43.578Z,30.37
2023-02-21T07:51:43.567Z,28.36
2023-02-21T07:52:43.551Z,26.23
2023-02-21T07:53:43.539Z,26.36
2023-02-21T07:54:43.527Z,26.92
2023-02-21T07:55:43.526Z,27.43
2023-02-21T07:56:43.521Z,27.89
2023-02-21T07:57:43.530Z,28.09
2023-02-21T07:58:43.517Z,28.22
2023-02-21T07:59:43.520Z,28.35
2023-02-21T08:00:43.513Z,28.40
2023-02-21T08:01:43.601Z,28.36
2023-02-21T08:02:43.495Z,28.49
2023-02-21T08:03:43.508Z,28.64
2023-02-21T08:04:43.582Z,28.77
2023-02-21T08:05:43.585Z,28.79
2023-02-21T08:06:43.620Z,28.83
2023-02-21T08:07:43.680Z,28.86
2023-02-21T08:08:43.679Z,28.91
2023-02-21T08:09:43.711Z,29.01
2023-02-21T08:10:43.727Z,29.08
2023-02-21T08:11:43.748Z,29.17
2023-02-21T08:12:43.770Z,29.22
2023-02-21T08:13:43.781Z,29.32
2023-02-21T08:14:43.804Z,29.79
2023-02-21T08:15:43.792Z,29.57
2023-02-21T08:16:43.771Z,29.62
2023-02-21T08:17:43.764Z,29.56
2023-02-21T08:18:43.738Z,29.62
2023-02-21T08:19:43.727Z,29.59
2023-02-21T08:20:43.708Z,29.59
2023-02-21T08:21:45.709Z,29.57
2023-02-21T08:22:43.689Z,29.56
2023-02-21T08:23:43.666Z,29.57
2023-02-21T08:24:43.636Z,29.54
2023-02-21T08:25:43.610Z,29.54
2023-02-21T08:26:43.612Z,29.52
2023-02-21T08:27:43.617Z,29.49
2023-02-21T08:28:43.579Z,29.47
2023-02-21T08:29:43.563Z,29.47
2023-02-21T08:30:43.598Z,29.47
2023-02-21T08:31:43.579Z,29.44
2023-02-21T08:32:43.514Z,29.45
2023-02-21T08:33:43.478Z,29.43
2023-02-21T08:34:43.449Z,29.38
2023-02-21T08:35:43.429Z,29.41
2023-02-21T08:36:43.446Z,29.37
2023-02-21T08:37:44.254Z,29.36
2023-02-21T08:38:43.469Z,29.36
2023-02-21T08:39:43.475Z,29.38
2023-02-21T08:40:43.489Z,29.36
2023-02-21T08:41:43.508Z,29.38
2023-02-21T08:42:43.508Z,29.35
2023-02-21T08:43:43.525Z,29.29
2023-02-21T08:44:43.595Z,29.29
2023-02-21T08:45:43.551Z,29.28
2023-02-21T08:46:43.606Z,29.29
2023-02-21T08:47:43.573Z,29.27
2023-02-21T08:48:43.591Z,29.27
2023-02-21T08:49:43.603Z,29.25
2023-02-21T08:50:43.612Z,29.22
2023-02-21T08:51:43.645Z,29.18
2023-02-21T08:52:43.660Z,29.15
2023-02-21T08:53:43.669Z,29.13
2023-02-21T08:54:44.262Z,29.15
2023-02-21T08:55:43.700Z,29.13
2023-02-21T08:56:43.720Z,29.13
2023-02-21T08:57:43.733Z,29.09
2023-02-21T08:58:43.749Z,29.09
2023-02-21T08:59:43.757Z,29.06
2023-02-21T09:00:43.786Z,29.04
2023-02-21T09:01:43.824Z,29.01
2023-02-21T09:02:43.807Z,29.04
2023-02-21T09:03:43.828Z,29.02
2023-02-21T09:04:43.848Z,29.01
2023-02-21T09:05:43.859Z,28.97
2023-02-21T09:06:43.874Z,28.95
2023-02-21T09:07:43.907Z,28.93
2023-02-21T09:08:44.865Z,28.94
2023-02-21T09:09:43.920Z,28.94
2023-02-21T09:10:43.999Z,28.91
2023-02-21T09:11:43.965Z,28.90
2023-02-21T09:12:43.974Z,28.86
2023-02-21T09:13:43.986Z,28.91
2023-02-21T09:14:44.007Z,29.21
2023-02-21T09:15:44.045Z,29.34
2023-02-21T09:16:46.180Z,29.66
2023-02-21T09:17:44.038Z,29.75
2023-02-21T09:18:44.354Z,29.87
2023-02-21T09:19:43.983Z,30.21
2023-02-21T09:20:43.970Z,30.39
2023-02-21T09:21:43.965Z,30.60
2023-02-21T09:22:43.921Z,30.77
2023-02-21T09:23:43.912Z,30.91
2023-02-21T09:24:43.897Z,31.40
2023-02-21T09:25:43.875Z,31.29
2023-02-21T09:26:43.884Z,31.52
2023-02-21T09:27:43.827Z,31.98
2023-02-21T09:28:43.815Z,32.10
2023-02-21T09:29:46.640Z,32.31
2023-02-21T09:30:43.822Z,32.65
2023-02-21T09:31:43.779Z,32.64
2023-02-21T09:32:43.731Z,32.89
2023-02-21T09:33:43.691Z,33.05
2023-02-21T09:34:43.657Z,33.20
2023-02-21T09:35:43.628Z,33.41
2023-02-21T09:36:43.589Z,33.77
2023-02-21T09:37:43.563Z,33.96
2023-02-21T09:38:43.536Z,34.05
2023-02-21T09:39:43.518Z,34.54
2023-02-21T09:40:43.487Z,34.48
2023-02-21T09:41:43.463Z,34.75
2023-02-21T09:42:43.461Z,34.91
2023-02-21T09:43:43.519Z,35.18
2023-02-21T09:44:43.382Z,35.24
2023-02-21T09:45:43.395Z,35.50
2023-02-21T09:46:43.346Z,35.52
2023-02-21T09:47:44.341Z,35.68
2023-02-21T09:48:43.280Z,36.17
2023-02-21T09:49:43.255Z,36.44
2023-02-21T09:50:43.225Z,36.71
2023-02-21T09:51:43.198Z,36.81
2023-02-21T09:52:43.218Z,37.04
2023-02-21T09:53:43.149Z,37.07
2023-02-21T09:54:43.125Z,37.18
2023-02-21T09:55:43.151Z,37.28
2023-02-21T09:56:43.188Z,37.49
2023-02-21T09:57:43.232Z,37.73
2023-02-21T09:58:43.285Z,37.88
2023-02-21T09:59:43.314Z,38.10
2023-02-21T10:00:46.503Z,38.34
2023-02-21T10:01:43.313Z,38.40
2023-02-21T10:02:43.271Z,38.64
2023-02-21T10:03:43.241Z,38.93
2023-02-21T10:04:43.232Z,39.25
2023-02-21T10:05:43.207Z,39.55
2023-02-21T10:06:43.151Z,39.71
2023-02-21T10:07:43.122Z,39.66
2023-02-21T10:08:43.095Z,39.74
2023-02-21T10:09:43.066Z,39.75
2023-02-21T10:10:43.054Z,39.95
2023-02-21T10:11:43.009Z,39.91
2023-02-21T10:12:42.983Z,40.23
2023-02-21T10:13:42.957Z,40.08
2023-02-21T10:14:42.967Z,40.45
2023-02-21T10:15:42.903Z,41.24
2023-02-21T10:16:42.911Z,41.15
2023-02-21T10:17:42.840Z,40.62
2023-02-21T10:18:42.800Z,40.49
2023-02-21T10:19:42.767Z,40.34
2023-02-21T10:20:42.732Z,40.25
2023-02-21T10:21:42.689Z,40.23
2023-02-21T10:22:42.655Z,40.13
2023-02-21T10:23:42.623Z,40.09
2023-02-21T10:24:42.596Z,40.11
2023-02-21T10:25:42.574Z,40.11
2023-02-21T10:26:42.599Z,40.02
2023-02-21T10:27:42.530Z,39.95
2023-02-21T10:28:43.414Z,39.85
2023-02-21T10:29:42.440Z,39.82
2023-02-21T10:30:42.543Z,39.76
2023-02-21T10:31:42.538Z,39.75
2023-02-21T10:32:42.349Z,39.73
2023-02-21T10:33:42.332Z,39.76
2023-02-21T10:34:42.301Z,39.71
2023-02-21T10:35:42.289Z,39.76
2023-02-21T10:36:42.266Z,39.74
2023-02-21T10:37:42.247Z,39.73
2023-02-21T10:38:42.230Z,39.70
2023-02-21T10:39:42.206Z,39.70
2023-02-21T10:40:42.188Z,39.71
2023-02-21T10:41:42.176Z,39.69
2023-02-21T10:42:42.139Z,39.69
2023-02-21T10:43:42.117Z,39.68
2023-02-21T10:44:42.104Z,39.68
2023-02-21T10:45:42.985Z,39.65
2023-02-21T10:46:42.089Z,39.64
2023-02-21T10:47:42.023Z,39.70
2023-02-21T10:48:42.036Z,39.66
2023-02-21T10:49:41.985Z,39.60
2023-02-21T10:50:41.979Z,39.63
2023-02-21T10:51:41.948Z,39.61
2023-02-21T10:52:42.041Z,39.58
2023-02-21T10:53:41.902Z,39.56
2023-02-21T10:54:41.871Z,39.61
2023-02-21T10:55:41.851Z,39.53
2023-02-21T10:56:41.834Z,39.54
2023-02-21T10:57:41.818Z,39.51
2023-02-21T10:58:41.791Z,39.51
2023-02-21T10:59:41.773Z,39.49
2023-02-21T11:00:41.826Z,39.52
2023-02-21T11:01:41.834Z,39.49
2023-02-21T12:14:41.762Z,36.65
2023-02-21T12:15:41.863Z,36.63
2023-02-21T12:16:41.776Z,36.62
2023-02-21T12:17:41.790Z,36.60
2023-02-21T12:18:41.805Z,36.59
2023-02-21T12:19:41.818Z,36.53
2023-02-21T12:20:41.839Z,36.56
2023-02-21T12:21:41.844Z,36.56
2023-02-21T12:22:42.778Z,36.55
2023-02-21T12:23:41.883Z,36.55
2023-02-21T12:24:41.892Z,36.53
2023-02-21T12:25:41.892Z,36.51
2023-02-21T12:28:41.933Z,36.46
2023-02-21T12:29:41.949Z,36.45
2023-02-21T12:30:42.023Z,36.45
2023-02-21T12:31:42.047Z,36.42
2023-02-21T12:32:41.994Z,36.43
2023-02-21T12:33:42.005Z,36.48
2023-02-21T12:34:42.009Z,36.55
2023-02-21T12:35:42.068Z,36.51
2023-02-21T12:36:42.048Z,36.49
2023-02-21T12:37:42.064Z,36.50
2023-02-21T12:38:42.086Z,36.52
2023-02-21T12:39:42.094Z,36.51
2023-02-21T12:40:42.115Z,36.55
2023-02-21T12:41:42.130Z,36.54
2023-02-21T12:42:42.151Z,36.52
2023-02-21T12:43:42.161Z,36.47
2023-02-21T12:44:42.175Z,36.46
2023-02-21T12:45:42.202Z,36.43
2023-02-21T12:46:42.308Z,36.48
2023-02-21T12:47:42.238Z,36.45
2023-02-21T12:48:42.243Z,36.49
2023-02-21T12:49:42.262Z,36.47
2023-02-21T12:50:42.290Z,36.49
2023-02-21T12:51:42.285Z,36.49
2023-02-21T12:52:42.300Z,36.46
2023-02-21T12:53:42.320Z,36.43
2023-02-21T12:54:42.351Z,36.44
2023-02-21T12:55:42.360Z,36.43
2023-02-21T12:56:42.381Z,36.46
2023-02-21T12:57:42.399Z,36.47
2023-02-21T12:58:42.419Z,36.45
2023-02-21T12:59:42.491Z,36.42
2023-02-21T13:00:42.456Z,36.41
2023-02-21T13:01:42.518Z,36.41
2023-02-21T13:02:42.563Z,36.37
2023-02-21T13:03:42.503Z,36.36
2023-02-21T13:04:42.518Z,36.39
2023-02-21T13:05:42.548Z,36.38
2023-02-21T13:06:42.564Z,36.41
2023-02-21T13:07:42.581Z,36.34
2023-02-21T13:08:42.604Z,36.35
2023-02-21T13:09:42.628Z,36.37
2023-02-21T13:10:42.631Z,36.37
2023-02-21T13:11:43.396Z,36.36
2023-02-21T13:12:42.666Z,36.37
2023-02-21T13:13:42.688Z,36.35
2023-02-21T13:14:42.756Z,36.34
2023-02-21T13:15:42.720Z,36.38
2023-02-21T13:16:42.745Z,36.33
2023-02-21T13:17:42.759Z,36.31
2023-02-21T13:18:42.777Z,36.31
2023-02-21T13:19:42.790Z,36.30
2023-02-21T13:20:42.809Z,36.31
2023-02-21T13:21:42.843Z,36.28
2023-02-21T13:22:42.848Z,36.16
2023-02-21T13:23:42.868Z,36.23
2023-02-21T13:24:42.890Z,36.17
2023-02-21T13:25:43.443Z,36.14
2023-02-21T13:26:42.930Z,36.18
2023-02-21T13:27:42.946Z,36.15
2023-02-21T13:28:42.967Z,36.17
2023-02-21T13:29:42.973Z,36.17
2023-02-21T13:30:43.067Z,36.22
2023-02-21T13:31:43.106Z,36.17
2023-02-21T13:32:43.034Z,36.17
2023-02-21T13:33:43.056Z,36.16
2023-02-21T13:34:45.470Z,36.18
2023-02-21T13:35:43.166Z,36.15
2023-02-21T13:36:43.164Z,36.15
2023-02-21T13:37:43.187Z,36.16
2023-02-21T13:38:43.213Z,36.14
2023-02-21T13:39:43.227Z,36.12
2023-02-21T13:40:43.252Z,36.14
2023-02-21T13:41:43.270Z,36.11
2023-02-21T13:42:43.295Z,36.10
2023-02-21T13:43:43.863Z,36.13
2023-02-21T13:44:43.328Z,36.15
2023-02-21T13:45:43.331Z,36.11
2023-02-21T13:46:43.409Z,36.09
2023-02-21T13:47:43.372Z,36.12
2023-02-21T13:48:43.407Z,36.07
2023-02-21T13:49:43.420Z,36.10
2023-02-21T13:50:43.443Z,36.12
2023-02-21T13:51:43.456Z,36.11
2023-02-21T13:52:43.490Z,36.09
2023-02-21T13:53:43.489Z,36.07
2023-02-21T13:54:43.523Z,36.07
2023-02-21T13:55:43.531Z,36.04
2023-02-21T13:56:43.549Z,36.04
2023-02-21T13:57:43.568Z,36.05
2023-02-21T13:58:43.613Z,36.03
2023-02-21T13:59:43.625Z,36.03
2023-02-21T14:00:43.657Z,36.02
2023-02-21T14:01:43.701Z,36.04
2023-02-21T14:02:43.678Z,36.00
2023-02-21T14:03:43.785Z,36.02
2023-02-21T14:04:43.741Z,36.01
2023-02-21T14:05:43.755Z,36.00
2023-02-21T14:06:43.769Z,36.03
2023-02-21T14:07:43.797Z,35.99
2023-02-21T14:08:43.806Z,35.98
2023-02-21T14:09:43.833Z,35.97
2023-02-21T14:10:43.853Z,35.97
2023-02-21T14:11:43.870Z,35.95
2023-02-21T14:12:43.890Z,35.93
2023-02-21T14:13:43.924Z,35.92
2023-02-21T14:14:43.944Z,35.92
2023-02-21T14:15:43.984Z,35.92
2023-02-21T14:16:44.052Z,35.92
2023-02-21T14:17:44.021Z,35.89
2023-02-21T14:18:44.047Z,35.86
2023-02-21T14:19:44.079Z,35.84
2023-02-21T14:20:44.089Z,35.83
2023-02-21T14:22:44.136Z,35.81
2023-02-21T14:23:44.152Z,35.79
2023-02-21T14:24:44.192Z,35.80
2023-02-21T14:25:44.203Z,35.79
2023-02-21T14:26:44.260Z,35.78
2023-02-21T14:27:44.255Z,35.75
2023-02-21T14:28:44.276Z,35.72
2023-02-21T14:29:44.365Z,35.75
2023-02-21T14:30:44.376Z,35.74
2023-02-21T14:32:44.427Z,35.73
2023-02-21T14:33:44.386Z,35.70
2023-02-21T16:23:46.513Z,34.82
2023-02-21T17:16:48.438Z,34.48
2023-02-21T17:17:53.246Z,34.47
2023-02-21T17:20:48.435Z,34.46
2023-02-21T17:21:48.416Z,34.48
2023-02-21T17:22:48.451Z,34.45
2023-02-21T17:23:48.379Z,34.43
2023-02-21T17:24:48.355Z,34.43
2023-02-21T17:25:48.337Z,34.43
2023-02-21T17:26:48.370Z,34.39
2023-02-21T17:27:48.309Z,34.39
2023-02-21T17:28:48.292Z,34.43
2023-02-21T17:29:48.319Z,34.39
2023-02-21T17:30:48.361Z,34.42
2023-02-21T17:31:48.400Z,34.37
2023-02-21T17:32:48.475Z,34.37
2023-02-21T17:33:48.504Z,34.38
2023-02-21T17:34:48.522Z,34.38
2023-02-21T17:35:48.561Z,34.33
2023-02-21T17:36:48.606Z,34.28
2023-02-21T17:37:48.636Z,34.33
2023-02-21T17:38:48.690Z,34.30
2023-02-21T17:39:48.747Z,34.26
2023-02-21T17:40:48.775Z,34.20
2023-02-21T17:41:48.819Z,34.23
2023-02-21T17:42:48.882Z,34.20
2023-02-21T17:43:48.960Z,34.19
2023-02-21T17:44:48.974Z,34.12
2023-02-21T17:45:49.010Z,34.17
2023-02-21T17:46:49.074Z,34.10
2023-02-21T17:47:49.106Z,34.08
2023-02-21T17:48:49.158Z,34.07
2023-02-21T17:49:49.181Z,34.11
2023-02-21T17:50:49.221Z,34.06
2023-02-21T17:51:49.303Z,34.09
2023-02-21T17:52:49.318Z,34.05
2023-02-21T17:53:49.371Z,34.05
2023-02-21T17:54:49.415Z,34.03
2023-02-21T17:55:49.460Z,34.05
2023-02-21T17:56:49.531Z,34.03
2023-02-21T17:57:49.550Z,34.04
2023-02-21T17:58:49.626Z,34.07
2023-02-21T17:59:49.652Z,34.10
2023-02-21T18:00:49.726Z,34.08
2023-02-21T18:01:49.754Z,34.02
2023-02-21T18:02:49.807Z,34.03
2023-02-21T18:03:49.868Z,34.00
2023-02-21T18:04:50.010Z,34.02
2023-02-21T18:05:49.956Z,34.10
2023-02-21T18:06:50.007Z,34.07
2023-02-21T18:07:50.068Z,34.07
2023-02-21T18:08:50.097Z,34.11
2023-02-21T18:09:50.169Z,34.10
2023-02-21T18:10:50.199Z,34.08
2023-02-21T18:11:50.255Z,34.12
2023-02-21T18:12:51.416Z,34.10
2023-02-21T18:13:50.340Z,34.06
2023-02-21T18:14:50.368Z,34.06
2023-02-21T18:15:50.463Z,34.07
2023-02-21T18:16:50.467Z,34.06
2023-02-21T18:17:50.505Z,34.06
2023-02-21T18:18:50.546Z,34.01
2023-02-21T18:19:50.592Z,34.05
2023-02-21T18:20:50.628Z,34.00
2023-02-21T18:21:50.672Z,34.05
2023-02-21T18:22:50.744Z,34.01
2023-02-21T18:23:51.977Z,34.02
2023-02-21T18:24:50.813Z,34.00
2023-02-21T18:25:50.868Z,33.99
2023-02-21T18:26:50.913Z,33.99
2023-02-21T18:27:50.975Z,34.00
2023-02-21T18:28:51.018Z,33.95
2023-02-21T18:29:51.076Z,33.96
2023-02-21T18:30:51.124Z,33.93
2023-02-21T18:31:52.074Z,33.91
2023-02-21T18:32:51.233Z,33.91
2023-02-21T18:33:51.281Z,33.94
2023-02-21T18:34:51.336Z,33.89
2023-02-21T18:35:51.366Z,33.90
2023-02-21T18:36:51.428Z,33.92
2023-02-21T18:37:51.487Z,33.92
2023-02-21T18:38:51.546Z,33.92
2023-02-21T18:39:51.588Z,33.94
2023-02-21T18:40:51.639Z,33.91
2023-02-21T18:41:51.689Z,33.88
2023-02-21T18:42:51.743Z,33.86
2023-02-21T18:43:51.796Z,33.92
2023-02-21T18:44:51.898Z,33.92
2023-02-21T18:45:51.905Z,33.89
2023-02-21T18:46:51.963Z,33.90
2023-02-21T18:47:52.009Z,33.88
2023-02-21T18:48:52.063Z,33.87
2023-02-21T18:49:52.169Z,33.85
2023-02-21T18:50:52.161Z,33.91
2023-02-21T18:51:52.225Z,33.87
2023-02-21T18:52:52.268Z,33.87
2023-02-21T18:53:52.313Z,33.85
2023-02-21T18:54:52.367Z,33.84
2023-02-21T18:55:52.430Z,33.80
2023-02-21T18:56:52.487Z,33.84
2023-02-21T18:57:52.549Z,33.84
2023-02-21T18:58:52.592Z,33.84
2023-02-21T18:59:52.632Z,33.82
2023-02-21T19:00:52.700Z,33.81
2023-02-21T19:01:52.729Z,33.81
2023-02-21T19:02:52.788Z,33.82
2023-02-21T19:03:52.882Z,33.82
2023-02-21T19:04:52.886Z,33.80
2023-02-21T19:05:52.964Z,33.76
2023-02-21T19:06:52.996Z,33.79
2023-02-21T19:07:53.665Z,33.77
2023-02-21T19:08:53.273Z,33.79
2023-02-21T19:09:53.168Z,33.76
2023-02-21T19:10:53.247Z,33.77
2023-02-21T19:11:53.284Z,33.73
2023-02-21T19:12:53.342Z,33.72
2023-02-21T19:13:53.465Z,33.74
2023-02-21T19:14:53.410Z,33.68
2023-02-21T19:15:53.453Z,33.71
2023-02-21T19:16:53.498Z,33.71
2023-02-21T19:17:53.609Z,33.70
2023-02-21T19:18:53.581Z,33.71
2023-02-21T19:19:53.637Z,33.70
2023-02-21T19:20:53.668Z,33.67
2023-02-21T19:21:53.716Z,33.68
2023-02-21T19:22:53.771Z,33.68
2023-02-21T19:23:53.822Z,33.65
2023-02-21T22:09:01.799Z,32.15
2023-02-21T22:10:01.832Z,32.17
2023-02-21T22:11:01.927Z,32.15
2023-02-21T22:12:01.936Z,32.16
2023-02-21T22:13:01.998Z,32.15
2023-02-21T22:14:02.064Z,32.11
2023-02-21T22:15:02.140Z,32.11
2023-02-21T22:16:02.209Z,32.11
2023-02-21T22:17:02.206Z,32.09
2023-02-21T22:18:02.263Z,32.04
2023-02-21T22:19:02.300Z,32.01
2023-02-21T22:20:02.348Z,32.02
2023-02-21T22:21:02.387Z,32.00
2023-02-21T22:22:02.434Z,32.00
2023-02-21T22:23:02.457Z,32.01
2023-02-21T22:24:02.516Z,31.98
2023-02-21T22:25:02.587Z,31.97
2023-02-21T22:26:02.613Z,31.97
2023-02-21T22:27:02.659Z,31.95
2023-02-21T22:28:02.694Z,31.91
2023-02-21T22:29:02.738Z,31.94